Time;durP1;ratioP1;P1;durP2;ratioP2;P2;SDS_P1;SDS_P2;PMS_P1;PMS_P2;Temp;Humidity;BMP_temperature;BMP_pressure;BME280_temperature;BME280_humidity;BME280_pressure;Samples;Min_cycle;Max_cycle;Signal;HPM_P1;HPM_P2
2021/01/15 00:01:16;;;;;;;21.20;13.27;;;0.90;2099.20;;;;;;4839445;29;20045;-76
2021/01/15 00:03:42;;;;;;;21.85;13.10;;;0.90;2073.60;;;;;;4840065;29;20034;-74
2021/01/15 00:06:08;;;;;;;23.27;14.43;;;0.80;2073.60;;;;;;4839940;29;20387;-76
2021/01/15 00:08:38;;;;;;;20.08;12.82;;;0.80;2099.20;;;;;;4840939;29;20105;-76
2021/01/15 00:11:04;;;;;;;23.15;13.40;;;0.70;2099.20;;;;;;4838824;29;20045;-73
2021/01/15 00:13:30;;;;;;;21.02;13.85;;;0.70;2124.80;;;;;;4839605;29;20419;-75
2021/01/15 00:15:56;;;;;;;28.20;15.88;;;0.60;2124.80;;;;;;4840560;29;20109;-74
2021/01/15 00:18:22;;;;;;;17.92;12.43;;;0.60;2124.80;;;;;;4840877;29;20104;-75
2021/01/15 00:20:48;;;;;;;17.42;11.43;;;0.50;2124.80;;;;;;4839863;29;20102;-75
2021/01/15 00:23:17;;;;;;;19.00;12.43;;;0.50;2124.80;;;;;;4840963;29;20061;-75
2021/01/15 00:25:46;;;;;;;28.10;15.45;;;0.50;2124.80;;;;;;4839166;29;20042;-73
2021/01/15 00:28:12;;;;;;;24.15;15.18;;;0.50;2124.80;;;;;;4840367;29;20026;-75
2021/01/15 00:30:37;;;;;;;21.98;13.52;;;0.50;2124.80;;;;;;4840730;29;20037;-75
2021/01/15 00:33:04;;;;;;;21.20;13.43;;;0.60;2124.80;;;;;;4838990;29;20443;-75
2021/01/15 00:35:30;;;;;;;22.63;15.05;;;0.60;2124.80;;;;;;4840645;29;20082;-75
2021/01/15 00:37:56;;;;;;;23.88;14.65;;;0.60;2124.80;;;;;;4840343;29;20113;-75
2021/01/15 00:40:22;;;;;;;25.00;12.85;;;0.50;2124.80;;;;;;4840736;29;20815;-74
2021/01/15 00:42:47;;;;;;;25.38;14.50;;;0.60;2124.80;;;;;;4838781;29;20037;-74
2021/01/15 00:45:16;;;;;;;24.95;15.88;;;0.50;2124.80;;;;;;4840760;29;20026;-74
2021/01/15 00:47:43;;;;;;;26.55;15.20;;;0.50;2124.80;;;;;;4838962;29;20034;-75
2021/01/15 00:50:11;;;;;;;21.90;12.82;;;0.60;2124.80;;;;;;4839965;29;20418;-74
2021/01/15 00:52:36;;;;;;;19.05;13.68;;;0.60;2124.80;;;;;;4840599;29;20030;-75
2021/01/15 00:55:02;;;;;;;22.45;14.20;;;0.60;2124.80;;;;;;4839992;29;20517;-75
2021/01/15 00:57:28;;;;;;;21.88;14.35;;;0.60;2124.80;;;;;;4841502;29;20078;-75
2021/01/15 00:59:53;;;;;;;20.63;13.00;;;0.60;2124.80;;;;;;4842397;29;20033;-75
2021/01/15 01:02:19;;;;;;;23.02;13.82;;;0.60;2124.80;;;;;;4844008;29;20037;-75
2021/01/15 01:04:45;;;;;;;20.98;13.48;;;0.60;2124.80;;;;;;4842981;29;20046;-77
2021/01/15 01:07:11;;;;;;;16.23;11.70;;;0.50;2124.80;;;;;;4843944;29;20057;-75
2021/01/15 01:09:36;;;;;;;21.88;12.77;;;0.50;2124.80;;;;;;4843393;29;20086;-75
2021/01/15 01:12:02;;;;;;;21.17;13.73;;;0.50;2150.40;;;;;;4843987;29;20132;-77
2021/01/15 01:14:28;;;;;;;19.52;12.38;;;0.50;2150.40;;;;;;4842187;29;20030;-76
2021/01/15 01:16:54;;;;;;;21.27;13.32;;;0.50;2150.40;;;;;;4843478;29;20025;-75
2021/01/15 01:19:19;;;;;;;21.65;14.35;;;0.50;2150.40;;;;;;4843537;29;20382;-75
2021/01/15 01:21:45;;;;;;;22.33;13.68;;;0.50;2150.40;;;;;;4842960;29;20045;-75
2021/01/15 01:24:11;;;;;;;18.00;12.60;;;0.50;2150.40;;;;;;4843845;29;20027;-76
2021/01/15 01:26:36;;;;;;;22.70;13.15;;;0.50;2150.40;;;;;;4843189;29;20459;-76
2021/01/15 01:29:02;;;;;;;18.35;12.93;;;0.50;2150.40;;;;;;4843478;29;20030;-76
2021/01/15 01:31:28;;;;;;;19.95;11.98;;;0.50;2150.40;;;;;;4838904;29;20030;-75
2021/01/15 01:33:54;;;;;;;19.25;13.07;;;0.40;2150.40;;;;;;4837035;29;20038;-75
2021/01/15 01:36:19;;;;;;;20.95;13.70;;;0.40;2150.40;;;;;;4841660;29;20088;-76
2021/01/15 01:38:45;;;;;;;22.23;13.07;;;0.40;2150.40;;;;;;4842423;29;20038;-75
2021/01/15 01:41:11;;;;;;;21.50;14.25;;;0.40;2150.40;;;;;;4842653;29;20603;-76
2021/01/15 01:43:36;;;;;;;19.95;13.50;;;0.30;2150.40;;;;;;4843386;29;20030;-75
2021/01/15 01:46:05;;;;;;;19.40;12.77;;;0.30;2150.40;;;;;;4842796;29;20030;-75
2021/01/15 01:48:32;;;;;;;19.35;13.20;;;0.30;2150.40;;;;;;4842862;29;20018;-75
2021/01/15 01:50:59;;;;;;;16.23;11.48;;;0.30;2150.40;;;;;;4843222;29;20422;-75
2021/01/15 01:53:30;;;;;;;17.17;10.93;;;0.40;2150.40;;;;;;4842802;29;20033;-75
2021/01/15 01:55:56;;;;;;;16.85;11.38;;;0.30;2150.40;;;;;;4843215;29;20105;-76
2021/01/15 01:58:23;;;;;;;19.92;12.95;;;0.30;2150.40;;;;;;4842817;29;20033;-75
2021/01/15 02:00:57;;;;;;;17.35;11.80;;;0.30;2150.40;;;;;;4842165;29;20117;-75
2021/01/15 02:03:22;;;;;;;18.55;11.20;;;0.30;2150.40;;;;;;4842465;29;20061;-74
2021/01/15 02:05:48;;;;;;;18.30;12.35;;;0.30;2150.40;;;;;;4840947;29;20096;-76
2021/01/15 02:08:14;;;;;;;18.33;11.60;;;0.30;2150.40;;;;;;4842614;29;20026;-76
2021/01/15 02:10:44;;;;;;;16.27;10.68;;;0.30;2176.00;;;;;;4842051;29;20029;-76
2021/01/15 02:13:22;;;;;;;17.00;11.15;;;0.20;2176.00;;;;;;4843087;29;20150;-76
2021/01/15 02:15:58;;;;;;;18.95;13.10;;;0.20;2176.00;;;;;;4842254;29;20053;-76
2021/01/15 02:18:32;;;;;;;17.85;12.02;;;0.20;2176.00;;;;;;4842086;29;20036;-76
2021/01/15 02:21:19;;;;;;;18.42;12.32;;;0.20;2176.00;;;;;;4829660;29;20048;-76
2021/01/15 02:23:46;;;;;;;18.63;11.73;;;0.20;2176.00;;;;;;4834927;29;20754;-75
2021/01/15 02:26:30;;;;;;;17.48;12.18;;;0.10;2176.00;;;;;;4841106;29;20775;-75
2021/01/15 02:29:32;;;;;;;19.02;12.18;;;0.10;2176.00;;;;;;4824455;29;20086;-75
2021/01/15 02:32:04;;;;;;;16.70;11.25;;;0.10;2176.00;;;;;;4827355;29;20045;-75
2021/01/15 02:34:51;;;;;;;15.60;10.48;;;0.10;2201.60;;;;;;4826818;29;20053;-75
2021/01/15 02:37:27;;;;;;;21.48;11.88;;;0.00;2201.60;;;;;;4825966;29;20094;-75
2021/01/15 02:40:22;;;;;;;15.20;10.55;;;0.10;2201.60;;;;;;4838595;29;20134;-75
2021/01/15 02:42:51;;;;;;;17.17;11.35;;;0.00;2176.00;;;;;;4841110;29;20061;-75
2021/01/15 02:45:18;;;;;;;18.00;12.07;;;0.10;2176.00;;;;;;4840649;29;20077;-76
2021/01/15 02:47:48;;;;;;;18.50;11.60;;;0.10;2176.00;;;;;;4842279;29;20026;-75
2021/01/15 02:50:32;;;;;;;19.05;12.98;;;0.00;2176.00;;;;;;4841643;29;20030;-76
2021/01/15 02:52:59;;;;;;;21.88;13.10;;;0.00;2176.00;;;;;;4841755;29;20025;-74
2021/01/15 02:55:25;;;;;;;18.15;11.88;;;0.00;2176.00;;;;;;4840818;29;20094;-75
2021/01/15 02:57:51;;;;;;;18.67;12.25;;;0.00;2176.00;;;;;;4840403;29;20042;-75
2021/01/15 03:00:20;;;;;;;19.40;12.52;;;0.00;2201.60;;;;;;4842036;29;20057;-75
2021/01/15 03:03:07;;;;;;;18.45;12.90;;;0.00;2201.60;;;;;;4841373;29;20391;-75
2021/01/15 03:05:49;;;;;;;18.52;11.98;;;12.90;2201.60;;;;;;4841870;29;20523;-76
2021/01/15 03:08:19;;;;;;;18.67;10.63;;;12.90;2201.60;;;;;;4842134;29;20030;-76
2021/01/15 03:10:46;;;;;;;16.98;11.10;;;13.00;2201.60;;;;;;4841391;29;20378;-75
2021/01/15 03:13:14;;;;;;;17.83;12.18;;;12.90;2201.60;;;;;;4841932;29;20030;-76
2021/01/15 03:15:40;;;;;;;16.48;11.27;;;13.00;2201.60;;;;;;4841602;29;20054;-76
2021/01/15 03:18:07;;;;;;;22.10;12.68;;;13.00;2201.60;;;;;;4840561;29;20049;-77
2021/01/15 03:20:33;;;;;;;18.77;11.90;;;13.00;2201.60;;;;;;4840125;29;20447;-76
2021/01/15 03:22:59;;;;;;;20.15;11.07;;;13.00;2201.60;;;;;;4841188;29;20030;-75
2021/01/15 03:25:25;;;;;;;16.38;10.57;;;12.90;2201.60;;;;;;4841561;29;20034;-75
2021/01/15 03:27:56;;;;;;;17.38;11.27;;;12.90;2176.00;;;;;;4841047;29;20038;-75
2021/01/15 03:30:27;;;;;;;16.70;12.00;;;13.00;2176.00;;;;;;4840441;29;20022;-75
2021/01/15 03:33:00;;;;;;;17.85;11.18;;;13.00;2201.60;;;;;;4839692;29;20030;-75
2021/01/15 03:35:28;;;;;;;20.33;13.95;;;13.00;2201.60;;;;;;4841437;29;20046;-75
2021/01/15 03:38:02;;;;;;;20.00;12.20;;;13.10;2201.60;;;;;;4841603;29;20030;-76
2021/01/15 03:40:30;;;;;;;15.50;11.48;;;13.10;2201.60;;;;;;4839709;29;20037;-76
2021/01/15 03:42:57;;;;;;;17.77;11.88;;;13.10;2201.60;;;;;;4841463;29;20034;-75
2021/01/15 03:45:23;;;;;;;18.10;11.63;;;13.10;2201.60;;;;;;4839344;29;20034;-75
2021/01/15 03:47:49;;;;;;;19.30;12.85;;;13.00;2201.60;;;;;;4841239;29;20101;-74
2021/01/15 03:50:15;;;;;;;20.15;12.55;;;13.00;2201.60;;;;;;4840980;29;20166;-76
2021/01/15 03:52:41;;;;;;;25.13;14.25;;;13.10;2176.00;;;;;;4839980;29;20038;-75
2021/01/15 03:55:07;;;;;;;33.03;19.17;;;13.10;2176.00;;;;;;4840649;29;20030;-75
2021/01/15 03:57:33;;;;;;;33.55;18.65;;;13.10;2176.00;;;;;;4839443;29;20812;-75
2021/01/15 04:00:01;;;;;;;29.20;17.42;;;13.10;2176.00;;;;;;4840114;29;20037;-75
2021/01/15 04:02:27;;;;;;;25.23;14.25;;;13.20;2176.00;;;;;;4839668;29;20137;-75
2021/01/15 04:04:52;;;;;;;30.20;18.80;;;13.20;2176.00;;;;;;4840914;29;20129;-75
2021/01/15 04:07:18;;;;;;;34.85;18.23;;;13.20;2176.00;;;;;;4840575;29;20030;-75
2021/01/15 04:09:44;;;;;;;35.38;21.45;;;13.20;2176.00;;;;;;4841199;29;20026;-75
2021/01/15 04:12:11;;;;;;;26.38;17.13;;;13.20;2201.60;;;;;;4840674;29;20034;-75
2021/01/15 04:14:41;;;;;;;18.75;11.95;;;13.20;2176.00;;;;;;4841082;29;20441;-74
2021/01/15 04:17:07;;;;;;;20.33;12.00;;;13.20;2176.00;;;;;;4840775;29;20033;-75
2021/01/15 04:19:33;;;;;;;21.42;11.98;;;13.30;2201.60;;;;;;4840189;29;20565;-75
2021/01/15 04:21:59;;;;;;;20.02;13.38;;;0.10;2176.00;;;;;;4841184;29;20110;-76
2021/01/15 04:24:25;;;;;;;18.35;11.23;;;13.30;2176.00;;;;;;4840025;29;20030;-75
2021/01/15 04:26:55;;;;;;;19.77;12.13;;;13.30;2176.00;;;;;;4844400;29;20061;-76
2021/01/15 04:29:21;;;;;;;18.98;12.00;;;13.30;2176.00;;;;;;4840334;29;20052;-75
2021/01/15 04:31:47;;;;;;;20.25;11.85;;;13.30;2176.00;;;;;;4840933;29;20131;-75
2021/01/15 04:34:13;;;;;;;17.48;12.02;;;13.30;2176.00;;;;;;4842538;29;20486;-76
2021/01/15 04:36:39;;;;;;;18.98;12.63;;;13.20;2176.00;;;;;;4844492;29;20045;-76
2021/01/15 04:39:05;;;;;;;20.95;13.52;;;13.30;2150.40;;;;;;4844144;29;20034;-75
2021/01/15 04:41:32;;;;;;;22.05;14.77;;;13.30;2176.00;;;;;;4844490;29;20034;-75
2021/01/15 04:43:58;;;;;;;25.50;15.55;;;13.20;2176.00;;;;;;4843890;29;20387;-75
2021/01/15 04:46:24;;;;;;;23.60;14.95;;;13.40;2176.00;;;;;;4844029;29;20525;-76
2021/01/15 04:48:52;;;;;;;23.85;13.75;;;13.40;2176.00;;;;;;4843164;29;20174;-76
2021/01/15 04:51:24;;;;;;;21.08;13.75;;;13.40;2176.00;;;;;;4843930;29;20052;-76
2021/01/15 04:54:04;;;;;;;23.98;15.50;;;13.40;2176.00;;;;;;4844107;29;20026;-75
2021/01/15 04:56:49;;;;;;;26.40;15.95;;;13.40;2176.00;;;;;;4842485;29;20034;-75
2021/01/15 04:59:16;;;;;;;25.65;14.20;;;13.50;2176.00;;;;;;4843392;29;20045;-75
2021/01/15 05:01:46;;;;;;;24.75;14.43;;;13.40;2176.00;;;;;;4843915;29;20037;-75
2021/01/15 05:04:13;;;;;;;21.50;13.48;;;13.40;2201.60;;;;;;4843331;29;20054;-75
2021/01/15 05:06:50;;;;;;;25.88;17.30;;;13.40;2201.60;;;;;;4844081;29;20063;-75
2021/01/15 05:09:17;;;;;;;21.88;13.45;;;13.40;2201.60;;;;;;4843995;29;20097;-74
2021/01/15 05:11:44;;;;;;;26.40;14.60;;;13.40;2201.60;;;;;;4843299;29;20058;-73
2021/01/15 05:14:13;;;;;;;22.08;12.32;;;13.50;2201.60;;;;;;4843852;29;20037;-74
2021/01/15 05:16:44;;;;;;;24.80;14.63;;;13.40;2201.60;;;;;;4843320;29;20025;-76
2021/01/15 05:19:11;;;;;;;21.75;12.65;;;13.40;2201.60;;;;;;4843810;29;20048;-75
2021/01/15 05:21:38;;;;;;;21.08;12.38;;;13.40;2201.60;;;;;;4841944;29;20375;-75
2021/01/15 05:24:05;;;;;;;25.25;12.88;;;13.40;2201.60;;;;;;4843938;29;20030;-76
2021/01/15 05:26:38;;;;;;;26.25;14.25;;;13.40;2201.60;;;;;;4843152;29;20022;-75
2021/01/15 05:29:08;;;;;;;27.27;14.88;;;13.50;2201.60;;;;;;4843315;29;20137;-75
2021/01/15 05:31:56;;;;;;;39.67;19.70;;;13.50;2201.60;;;;;;4843517;29;20086;-75
2021/01/15 05:34:24;;;;;;;35.63;19.52;;;13.50;2201.60;;;;;;4842821;29;20041;-75
2021/01/15 05:36:50;;;;;;;32.70;17.50;;;13.40;2201.60;;;;;;4841881;29;20082;-76
2021/01/15 05:39:22;;;;;;;24.90;14.35;;;13.40;2201.60;;;;;;4841203;29;20090;-76
2021/01/15 05:41:49;;;;;;;25.13;15.77;;;13.40;2201.60;;;;;;4842892;29;20036;-75
2021/01/15 05:44:29;;;;;;;23.67;14.45;;;13.30;2201.60;;;;;;4842414;29;20022;-75
2021/01/15 05:46:56;;;;;;;31.17;18.92;;;13.40;2201.60;;;;;;4842789;29;20055;-75
2021/01/15 05:49:22;;;;;;;48.00;24.70;;;13.40;2201.60;;;;;;4842727;29;20097;-75
2021/01/15 05:51:48;;;;;;;48.38;25.20;;;13.40;2201.60;;;;;;4841951;29;20071;-75
2021/01/15 05:54:31;;;;;;;38.47;21.85;;;13.50;2201.60;;;;;;4842740;29;20064;-75
2021/01/15 05:56:58;;;;;;;38.60;20.77;;;13.50;2201.60;;;;;;4841704;29;20045;-75
2021/01/15 05:59:24;;;;;;;27.35;16.42;;;13.50;2201.60;;;;;;4842715;29;20037;-75
2021/01/15 06:02:04;;;;;;;35.58;22.55;;;13.50;2201.60;;;;;;4843104;29;20030;-75
2021/01/15 06:04:39;;;;;;;42.00;25.67;;;13.50;2201.60;;;;;;4841667;29;20046;-75
2021/01/15 06:07:16;;;;;;;42.83;23.02;;;13.50;2201.60;;;;;;4841351;29;20030;-75
2021/01/15 06:09:45;;;;;;;29.45;18.13;;;13.50;2201.60;;;;;;4842945;29;20033;-75
2021/01/15 06:12:16;;;;;;;29.85;18.90;;;13.50;2201.60;;;;;;4842416;29;20040;-76
2021/01/15 06:14:58;;;;;;;23.88;15.75;;;13.50;2201.60;;;;;;4842470;29;20109;-76
2021/01/15 06:17:25;;;;;;;25.48;15.90;;;13.50;2201.60;;;;;;4841646;29;20045;-75
2021/01/15 06:19:53;;;;;;;24.38;14.95;;;13.50;2201.60;;;;;;4842065;29;20402;-75
2021/01/15 06:22:27;;;;;;;29.15;16.20;;;13.50;2201.60;;;;;;4834192;29;20030;-75
2021/01/15 06:25:14;;;;;;;28.42;16.85;;;13.50;2201.60;;;;;;4841389;29;20717;-75
2021/01/15 06:27:41;;;;;;;33.45;18.15;;;13.50;2201.60;;;;;;4842130;29;20112;-75
2021/01/15 06:30:15;;;;;;;27.02;16.65;;;13.50;2201.60;;;;;;4842759;29;20067;-75
2021/01/15 06:32:42;;;;;;;27.88;17.15;;;13.50;2201.60;;;;;;4840493;29;20121;-75
2021/01/15 06:35:21;;;;;;;28.05;16.75;;;13.50;2201.60;;;;;;4840713;29;20042;-75
2021/01/15 06:38:04;;;;;;;28.77;18.27;;;13.50;2201.60;;;;;;4842399;29;20034;-75
2021/01/15 06:40:31;;;;;;;33.17;19.08;;;13.50;2201.60;;;;;;4841854;29;20038;-75
2021/01/15 06:43:00;;;;;;;28.85;19.75;;;13.50;2201.60;;;;;;4840309;29;20046;-75
2021/01/15 06:46:02;;;;;;;35.42;21.95;;;13.40;2201.60;;;;;;4841111;29;20034;-75
2021/01/15 06:48:38;;;;;;;37.33;21.02;;;13.40;2201.60;;;;;;4838508;29;20124;-75
2021/01/15 06:51:08;;;;;;;31.13;18.80;;;13.40;2201.60;;;;;;4840490;29;20041;-75
2021/01/15 06:53:41;;;;;;;42.83;25.15;;;13.30;2201.60;;;;;;4842068;29;20036;-75
2021/01/15 06:56:08;;;;;;;43.72;24.35;;;13.30;2201.60;;;;;;4841574;29;20038;-75
2021/01/15 06:58:39;;;;;;;52.92;28.92;;;13.20;2201.60;;;;;;4841205;29;20398;-75
2021/01/15 07:01:38;;;;;;;38.25;22.65;;;13.20;2201.60;;;;;;4841997;29;20079;-75
2021/01/15 07:04:22;;;;;;;48.47;27.02;;;13.10;2201.60;;;;;;4839872;29;20083;-75
2021/01/15 07:07:14;;;;;;;56.45;29.27;;;13.10;2201.60;;;;;;4841486;29;20072;-75
2021/01/15 07:09:42;;;;;;;37.78;22.88;;;13.10;2201.60;;;;;;4839806;29;20080;-75
2021/01/15 07:12:13;;;;;;;46.08;28.60;;;13.10;2201.60;;;;;;4841939;29;20034;-75
2021/01/15 07:14:44;;;;;;;50.78;27.45;;;13.10;2201.60;;;;;;4841142;29;20045;-75
2021/01/15 07:17:15;;;;;;;52.47;28.88;;;13.00;2201.60;;;;;;4841847;29;20078;-75
2021/01/15 07:19:45;;;;;;;48.08;25.15;;;13.00;2201.60;;;;;;4841340;29;20029;-75
2021/01/15 07:22:19;;;;;;;49.05;26.73;;;13.00;2201.60;;;;;;4840300;29;20031;-74
2021/01/15 07:24:45;;;;;;;42.35;25.13;;;13.00;2201.60;;;;;;4841596;29;20026;-75
2021/01/15 07:27:15;;;;;;;40.45;25.30;;;12.90;2176.00;;;;;;4840620;29;20778;-75
2021/01/15 07:29:48;;;;;;;32.33;19.40;;;12.90;2176.00;;;;;;4841730;29;20026;-75
2021/01/15 07:32:22;;;;;;;31.10;19.02;;;0.00;2176.00;;;;;;4841099;29;20071;-75
2021/01/15 07:35:01;;;;;;;32.25;19.20;;;0.00;2176.00;;;;;;4841265;29;20042;-75
2021/01/15 07:37:29;;;;;;;31.55;20.35;;;0.10;2150.40;;;;;;4841500;29;20065;-74
2021/01/15 07:40:05;;;;;;;31.08;18.63;;;0.00;2176.00;;;;;;4840738;29;20116;-76
2021/01/15 07:42:51;;;;;;;31.98;20.27;;;0.10;2150.40;;;;;;4841235;29;20034;-75
2021/01/15 07:45:23;;;;;;;;;;;0.10;2150.40;;;;;;4827548;29;20390;-75
2021/01/15 07:48:06;;;;;;;31.63;18.35;;;0.20;2150.40;;;;;;4825288;29;20412;-76
2021/01/15 07:50:43;;;;;;;32.53;19.67;;;0.20;2150.40;;;;;;4823291;29;20026;-76
2021/01/15 07:53:29;;;;;;;33.63;20.35;;;0.30;2150.40;;;;;;4828979;29;20026;-75
2021/01/15 07:56:00;;;;;;;29.40;17.98;;;0.40;2124.80;;;;;;4839819;29;20037;-75
2021/01/15 07:58:47;;;;;;;36.08;18.02;;;0.40;2124.80;;;;;;4840114;29;20034;-75
2021/01/15 08:01:16;;;;;;;35.17;21.42;;;0.50;2124.80;;;;;;4840320;29;20026;-75
2021/01/15 08:03:52;;;;;;;31.67;18.10;;;0.50;2124.80;;;;;;4839619;29;20026;-76
2021/01/15 08:06:18;;;;;;;;;;;0.60;2124.80;;;;;;4841516;29;20049;-76
2021/01/15 08:09:00;;;;;;;30.48;16.92;;;0.80;2099.20;;;;;;4839328;29;20328;-76
2021/01/15 08:11:27;;;;;;;29.77;16.90;;;0.80;2099.20;;;;;;4840642;29;20093;-76
2021/01/15 08:14:16;;;;;;;32.17;17.38;;;0.90;2099.20;;;;;;4839934;29;20476;-75
2021/01/15 08:16:43;;;;;;;27.52;16.55;;;25.60;2099.20;;;;;;4821953;29;20522;-75
2021/01/15 08:19:11;;;;;;;27.23;17.52;;;25.70;2073.60;;;;;;4824408;29;20457;-76
2021/01/15 08:21:37;;;;;;;30.33;18.58;;;25.60;2073.60;;;;;;4841115;29;20030;-76
2021/01/15 08:24:04;;;;;;;35.80;20.63;;;25.70;2073.60;;;;;;4840717;29;20026;-77
2021/01/15 08:26:56;;;;;;;32.05;20.40;;;25.80;2099.20;;;;;;4822754;29;20034;-75
2021/01/15 08:29:24;;;;;;;31.17;21.10;;;26.00;2073.60;;;;;;4823217;29;20023;-75
2021/01/15 08:31:56;;;;;;;37.05;22.70;;;26.00;2048.00;;;;;;4820764;29;20414;-76
2021/01/15 08:34:29;;;;;;;39.80;21.55;;;26.00;2048.00;;;;;;4827259;29;20030;-75
2021/01/15 08:37:00;;;;;;;34.15;19.83;;;26.10;2048.00;;;;;;4838794;29;20494;-75
2021/01/15 08:39:26;;;;;;;29.23;17.38;;;26.20;2048.00;;;;;;4840583;29;20034;-76
2021/01/15 08:41:56;;;;;;;30.33;19.58;;;26.30;2022.40;;;;;;4840940;29;20093;-76
2021/01/15 08:44:34;;;;;;;31.20;17.77;;;26.40;2022.40;;;;;;4840614;29;20026;-75
2021/01/15 08:47:09;;;;;;;32.85;18.63;;;26.50;2022.40;;;;;;4840956;29;20832;-75
2021/01/15 08:49:35;;;;;;;27.30;16.40;;;26.40;1996.80;;;;;;4836995;29;20388;-76
2021/01/15 08:52:02;;;;;;;29.92;17.02;;;51.20;2022.40;;;;;;4839517;29;20041;-77
2021/01/15 08:54:31;;;;;;;32.80;17.90;;;26.50;1996.80;;;;;;4840268;29;20049;-76
2021/01/15 08:56:59;;;;;;;34.17;21.60;;;51.30;2022.40;;;;;;4841338;29;20030;-76
2021/01/15 08:59:26;;;;;;;36.78;21.63;;;51.30;2022.40;;;;;;4841165;29;20030;-76
2021/01/15 09:01:54;;;;;;;37.65;22.60;;;51.40;2022.40;;;;;;4840843;29;20030;-77
2021/01/15 09:04:24;;;;;;;39.10;22.27;;;51.50;1996.80;;;;;;4841201;29;20041;-77
2021/01/15 09:06:53;;;;;;;31.50;19.45;;;51.70;1996.80;;;;;;4839805;29;20074;-76
2021/01/15 09:09:20;;;;;;;35.53;20.52;;;51.80;1971.20;;;;;;4841461;29;20047;-76
2021/01/15 09:11:48;;;;;;;44.20;25.63;;;52.00;1945.60;;;;;;4841875;29;20503;-77
2021/01/15 09:14:18;;;;;;;30.05;18.73;;;76.90;1920.00;;;;;;4841521;29;20033;-79
2021/01/15 09:16:47;;;;;;;30.50;18.73;;;77.10;1920.00;;;;;;4842313;29;20038;-79
2021/01/15 09:19:12;;;;;;;22.60;14.70;;;77.40;1868.80;;;;;;4842986;29;20093;-79
2021/01/15 09:21:52;;;;;;;25.20;17.35;;;77.40;1843.20;;;;;;4844812;29;20026;-78
2021/01/15 09:24:23;;;;;;;29.00;17.98;;;77.70;1817.60;;;;;;4844774;29;20382;-77
2021/01/15 09:27:05;;;;;;;32.58;19.58;;;77.70;1792.00;;;;;;4845555;29;20026;-77
2021/01/15 09:29:32;;;;;;;35.58;21.95;;;77.50;1817.60;;;;;;4844366;29;20458;-77
2021/01/15 09:31:58;;;;;;;34.65;19.38;;;77.30;1868.80;;;;;;4845534;29;20022;-77
2021/01/15 09:34:26;;;;;;;34.13;21.70;;;77.40;1843.20;;;;;;4843846;29;20081;-77
2021/01/15 09:36:52;;;;;;;30.20;20.05;;;77.60;1817.60;;;;;;4842476;29;20120;-77
2021/01/15 09:39:22;;;;;;;31.92;17.98;;;102.50;1792.00;;;;;;4843259;29;20037;-77
2021/01/15 09:41:58;;;;;;;29.33;18.77;;;102.40;1792.00;;;;;;4842445;29;20030;-77
2021/01/15 09:44:26;;;;;;;30.88;19.40;;;77.50;1817.60;;;;;;4842380;29;20774;-77
2021/01/15 09:46:58;;;;;;;27.60;17.08;;;77.60;1817.60;;;;;;4842137;29;20037;-78
2021/01/15 09:49:24;;;;;;;23.85;15.35;;;77.30;1868.80;;;;;;4842900;29;20026;-78
2021/01/15 09:51:51;;;;;;;31.30;18.88;;;77.10;1868.80;;;;;;4843224;29;20363;-77
2021/01/15 09:54:17;;;;;;;22.35;15.73;;;77.20;1868.80;;;;;;4843523;29;20036;-77
2021/01/15 09:56:44;;;;;;;29.40;18.98;;;77.70;1817.60;;;;;;4843219;29;20057;-77
2021/01/15 09:59:15;;;;;;;34.45;19.20;;;102.60;1817.60;;;;;;4842210;29;20375;-77
2021/01/15 10:01:41;;;;;;;30.73;19.63;;;102.50;1792.00;;;;;;4843508;29;20049;-77
2021/01/15 10:04:07;;;;;;;35.05;20.88;;;102.80;1766.40;;;;;;4842173;29;20991;-77
2021/01/15 10:06:41;;;;;;;29.70;18.90;;;102.60;1792.00;;;;;;4841988;29;20121;-77
2021/01/15 10:09:08;;;;;;;30.40;17.65;;;102.40;1792.00;;;;;;4842381;29;20061;-78
2021/01/15 10:11:46;;;;;;;31.00;19.23;;;102.50;1792.00;;;;;;4842112;29;20087;-77
2021/01/15 10:14:14;;;;;;;31.77;20.58;;;102.60;1792.00;;;;;;4841460;29;20041;-77
2021/01/15 10:16:47;;;;;;;28.67;19.27;;;102.40;1792.00;;;;;;4842455;29;20112;-77
2021/01/15 10:19:13;;;;;;;30.67;20.63;;;102.50;1792.00;;;;;;4842342;29;20121;-77
2021/01/15 10:21:40;;;;;;;32.28;20.88;;;102.50;1792.00;;;;;;4842252;29;20482;-77
2021/01/15 10:24:07;;;;;;;28.92;18.40;;;102.60;1817.60;;;;;;4842282;29;20030;-77
2021/01/15 10:26:35;;;;;;;35.25;23.48;;;77.70;1817.60;;;;;;4842767;29;20393;-77
2021/01/15 10:29:06;;;;;;;32.40;18.65;;;102.40;1817.60;;;;;;4843830;29;20026;-78
2021/01/15 10:31:43;;;;;;;38.30;25.45;;;102.40;1843.20;;;;;;4841189;29;20041;-78
2021/01/15 10:34:09;;;;;;;39.70;23.85;;;77.70;1817.60;;;;;;4843842;29;20033;-78
2021/01/15 10:36:35;;;;;;;28.92;19.48;;;102.40;1817.60;;;;;;4843593;29;20026;-78
2021/01/15 10:39:01;;;;;;;30.40;19.13;;;77.70;1817.60;;;;;;4843659;29;20094;-78
2021/01/15 10:41:38;;;;;;;33.70;21.27;;;77.50;1843.20;;;;;;4841681;29;20118;-78
2021/01/15 10:44:06;;;;;;;32.17;21.55;;;77.60;1843.20;;;;;;4841862;29;20062;-78
2021/01/15 10:46:44;;;;;;;32.22;21.63;;;77.50;1868.80;;;;;;4843276;29;20414;-78
2021/01/15 10:49:12;;;;;;;34.50;19.15;;;77.60;1843.20;;;;;;4841827;29;20037;-78
2021/01/15 10:51:45;;;;;;;32.22;22.15;;;102.40;1843.20;;;;;;4844110;29;20113;-78
2021/01/15 10:54:11;;;;;;;36.45;22.67;;;77.60;1868.80;;;;;;4843067;29;20037;-78
2021/01/15 10:56:38;;;;;;;29.10;18.83;;;77.30;1894.40;;;;;;4841687;29;20030;-78
2021/01/15 10:59:05;;;;;;;29.33;20.17;;;77.30;1920.00;;;;;;4841481;29;20033;-78
2021/01/15 11:01:48;;;;;;;29.20;20.50;;;77.20;1971.20;;;;;;4841349;29;20026;-78
2021/01/15 11:04:16;;;;;;;34.08;22.42;;;77.00;1996.80;;;;;;4841273;29;20042;-78
2021/01/15 11:06:43;;;;;;;36.45;22.70;;;77.10;1996.80;;;;;;4842151;29;20041;-78
2021/01/15 11:09:19;;;;;;;27.88;18.85;;;77.00;2022.40;;;;;;4842421;29;20054;-78
2021/01/15 11:11:52;;;;;;;36.60;20.38;;;76.80;2022.40;;;;;;4841780;29;20494;-78
2021/01/15 11:14:18;;;;;;;31.58;20.73;;;52.10;2022.40;;;;;;4841338;29;20042;-78
2021/01/15 11:16:45;;;;;;;30.08;20.42;;;52.10;2048.00;;;;;;4841666;29;20563;-78
2021/01/15 11:19:15;;;;;;;33.15;21.58;;;76.80;2073.60;;;;;;4841083;29;20428;-78
2021/01/15 11:21:41;;;;;;;36.88;23.65;;;52.00;2073.60;;;;;;4839907;29;20042;-79
2021/01/15 11:24:07;;;;;;;26.90;19.98;;;76.80;2073.60;;;;;;4840635;29;20409;-78
2021/01/15 11:26:33;;;;;;;35.05;20.98;;;52.10;2073.60;;;;;;4840542;29;20078;-80
2021/01/15 11:29:04;;;;;;;35.22;22.83;;;76.80;2048.00;;;;;;4842466;29;20034;-78
2021/01/15 11:31:31;;;;;;;42.67;25.83;;;76.80;2048.00;;;;;;4841827;29;20037;-79
2021/01/15 11:33:56;;;;;;;35.65;22.33;;;76.90;2099.20;;;;;;4840648;29;20754;-78
2021/01/15 11:36:30;;;;;;;37.65;24.35;;;76.80;2073.60;;;;;;4840769;29;20045;-78
2021/01/15 11:39:03;;;;;;;39.25;22.08;;;76.80;2099.20;;;;;;4842656;29;20026;-78
2021/01/15 11:41:29;;;;;;;31.88;21.85;;;76.90;2048.00;;;;;;4841446;29;20034;-78
2021/01/15 11:43:55;;;;;;;33.30;21.25;;;77.00;2048.00;;;;;;4840858;29;20030;-78
2021/01/15 11:46:21;;;;;;;31.98;19.50;;;76.90;2022.40;;;;;;4842531;29;20030;-78
2021/01/15 11:48:47;;;;;;;28.88;19.30;;;76.90;2048.00;;;;;;4842278;29;20030;-78
2021/01/15 11:51:12;;;;;;;32.28;20.25;;;76.80;2022.40;;;;;;4842158;29;20026;-78
2021/01/15 11:53:40;;;;;;;32.65;21.52;;;77.10;2022.40;;;;;;4840437;29;20056;-78
2021/01/15 11:56:06;;;;;;;38.17;22.13;;;77.20;2022.40;;;;;;4840853;29;20030;-78
2021/01/15 11:58:36;;;;;;;36.28;22.55;;;77.10;2022.40;;;;;;4840552;29;20500;-78
2021/01/15 12:01:02;;;;;;;30.95;20.52;;;77.10;1996.80;;;;;;4840795;29;20033;-78
2021/01/15 12:03:28;;;;;;;35.53;21.95;;;77.30;1996.80;;;;;;4841609;29;20082;-79
2021/01/15 12:05:54;;;;;;;34.95;22.52;;;77.10;1996.80;;;;;;4839909;29;20050;-78
2021/01/15 12:08:21;;;;;;;34.10;23.13;;;77.00;2022.40;;;;;;4840981;29;20037;-78
2021/01/15 12:11:07;;;;;;;34.10;24.10;;;77.00;2048.00;;;;;;4841923;29;20034;-78
2021/01/15 12:13:34;;;;;;;28.53;20.67;;;76.80;2048.00;;;;;;4841393;29;20038;-78
2021/01/15 12:16:00;;;;;;;48.45;29.10;;;76.90;2022.40;;;;;;4841165;29;20277;-78
2021/01/15 12:18:26;;;;;;;45.78;26.80;;;52.10;2048.00;;;;;;4842176;29;20108;-78
2021/01/15 12:20:52;;;;;;;34.53;23.15;;;76.90;2022.40;;;;;;4842653;29;20093;-78
2021/01/15 12:23:19;;;;;;;42.58;28.70;;;76.80;2022.40;;;;;;4840382;29;20030;-78
2021/01/15 12:25:45;;;;;;;39.42;24.98;;;52.10;2048.00;;;;;;4829508;29;20495;-78